Řízení letového provozu České republiky
Letiste: LKLN Aktualizace: 11.12.2019 05:55:25  UTC
 METAR LKLN 11.12. 06:00 ...
METAR LKLN 110600Z AUTO 00000KT CAVOK M07/M07 Q1018=